createdAt,value
2023-02-07T00:01:38.364Z,-2.60
2023-02-07T00:04:06.611Z,-2.63
2023-02-07T00:06:36.597Z,-2.63
2023-02-07T00:09:08.886Z,-2.65
2023-02-07T00:11:40.611Z,-2.64
2023-02-07T00:14:11.205Z,-2.62
2023-02-07T00:16:41.523Z,-2.63
2023-02-07T00:19:10.021Z,-2.67
2023-02-07T00:21:38.350Z,-2.68
2023-02-07T00:24:07.705Z,-2.68
2023-02-07T00:26:36.126Z,-2.64
2023-02-07T00:29:05.086Z,-2.60
2023-02-07T00:31:36.398Z,-1.88
2023-02-07T00:34:07.284Z,-1.88
2023-02-07T00:36:36.521Z,-2.22
2023-02-07T00:39:13.424Z,-2.46
2023-02-07T00:41:42.459Z,-2.52
2023-02-07T00:44:11.413Z,-2.78
2023-02-07T00:46:40.181Z,-2.87
2023-02-07T00:49:08.258Z,-2.79
2023-02-07T00:51:37.351Z,-2.79
2023-02-07T00:54:06.429Z,-2.81
2023-02-07T00:56:35.068Z,-2.80
2023-02-07T00:59:03.906Z,-2.84
2023-02-07T01:01:32.112Z,-2.82
2023-02-07T01:04:00.344Z,-2.81
2023-02-07T01:06:33.537Z,-2.84
2023-02-07T01:09:03.504Z,-2.87
2023-02-07T01:11:32.124Z,-2.89
2023-02-07T01:14:01.732Z,-2.92
2023-02-07T01:16:34.158Z,-2.99
2023-02-07T01:19:09.094Z,-3.03
2023-02-07T01:21:37.833Z,-3.01
2023-02-07T01:24:07.806Z,-2.99
2023-02-07T01:26:38.672Z,-2.97
2023-02-07T01:29:07.388Z,-3.02
2023-02-07T01:31:36.316Z,-3.05
2023-02-07T01:34:05.745Z,-3.07
2023-02-07T01:36:33.934Z,-3.09
2023-02-07T01:39:03.872Z,-3.08
2023-02-07T01:41:35.562Z,-3.09
2023-02-07T01:44:27.738Z,-3.09
2023-02-07T01:46:56.877Z,-3.09
2023-02-07T01:49:31.140Z,-3.09
2023-02-07T01:52:06.118Z,-3.11
2023-02-07T01:54:36.501Z,-3.10
2023-02-07T01:57:12.572Z,-3.14
2023-02-07T01:59:43.978Z,-3.09
2023-02-07T02:02:15.368Z,-3.09
2023-02-07T02:04:43.322Z,-3.13
2023-02-07T02:07:14.114Z,-3.14
2023-02-07T02:09:42.097Z,-3.22
2023-02-07T02:12:56.883Z,-3.25
2023-02-07T02:15:48.076Z,-3.22
2023-02-07T02:18:26.197Z,-3.20
2023-02-07T02:21:32.960Z,-3.24
2023-02-07T02:24:39.404Z,-3.29
2023-02-07T02:27:32.375Z,-3.38
2023-02-07T02:30:40.940Z,-3.50
2023-02-07T02:33:42.417Z,-3.52
2023-02-07T02:36:29.979Z,-3.54
2023-02-07T02:39:03.576Z,-3.54
2023-02-07T02:41:49.356Z,-3.58
2023-02-07T02:44:27.802Z,-3.61
2023-02-07T02:46:57.980Z,-3.61
2023-02-07T02:49:26.659Z,-3.60
2023-02-07T02:51:54.741Z,-3.60
2023-02-07T02:54:36.542Z,-3.55
2023-02-07T02:57:49.651Z,-3.60
2023-02-07T03:00:44.066Z,-3.54
2023-02-07T03:03:57.568Z,-3.55
2023-02-07T03:06:52.592Z,-3.55
2023-02-07T03:09:55.194Z,-3.52
2023-02-07T03:12:41.652Z,-3.48
2023-02-07T03:15:30.654Z,-3.50
2023-02-07T03:18:15.420Z,-3.52
2023-02-07T03:21:31.553Z,-3.55
2023-02-07T03:24:05.081Z,-3.58
2023-02-07T03:26:36.703Z,-3.62
2023-02-07T03:29:07.597Z,-3.64
2023-02-07T03:31:42.755Z,-3.67
2023-02-07T03:34:26.202Z,-3.67
2023-02-07T03:37:10.565Z,-3.64
2023-02-07T03:39:39.505Z,-3.67
2023-02-07T03:42:17.040Z,-3.68
2023-02-07T03:44:46.755Z,-3.66
2023-02-07T03:47:18.199Z,-3.63
2023-02-07T03:49:46.320Z,-3.64
2023-02-07T03:52:14.217Z,-3.62
2023-02-07T03:54:42.261Z,-3.66
2023-02-07T03:57:10.378Z,-3.65
2023-02-07T03:59:38.715Z,-3.61
2023-02-07T04:02:07.004Z,-3.57
2023-02-07T04:04:35.281Z,-3.52
2023-02-07T04:07:03.600Z,-3.52
2023-02-07T04:09:31.706Z,-3.51
2023-02-07T04:11:59.770Z,-3.43
2023-02-07T04:14:27.884Z,-3.37
2023-02-07T04:16:55.856Z,-3.27
2023-02-07T04:19:24.185Z,-3.24
2023-02-07T04:21:52.235Z,-3.15
2023-02-07T04:24:20.208Z,-3.08
2023-02-07T04:26:48.228Z,-3.06
2023-02-07T04:29:16.623Z,-2.98
2023-02-07T04:31:44.668Z,-2.93
2023-02-07T04:34:13.142Z,-3.05
2023-02-07T04:36:41.159Z,-2.97
2023-02-07T04:39:09.098Z,-3.01
2023-02-07T04:41:37.074Z,-3.02
2023-02-07T04:44:05.248Z,-3.01
2023-02-07T04:46:34.204Z,-2.94
2023-02-07T04:49:04.025Z,-2.86
2023-02-07T04:51:32.577Z,-2.86
2023-02-07T04:54:00.542Z,-2.97
2023-02-07T04:56:28.525Z,-2.94
2023-02-07T04:58:56.651Z,-2.90
2023-02-07T05:01:27.428Z,-2.96
2023-02-07T05:03:55.447Z,-2.93
2023-02-07T05:06:23.569Z,-2.93
2023-02-07T05:08:51.544Z,-2.91
2023-02-07T05:11:19.935Z,-2.96
2023-02-07T05:13:47.914Z,-2.88
2023-02-07T05:16:16.152Z,-2.87
2023-02-07T05:18:44.760Z,-2.80
2023-02-07T05:21:12.702Z,-2.79
2023-02-07T05:23:40.698Z,-2.75
2023-02-07T05:26:08.832Z,-2.77
2023-02-07T05:28:36.841Z,-2.69
2023-02-07T05:31:05.122Z,-2.66
2023-02-07T05:33:33.123Z,-2.52
2023-02-07T05:36:02.858Z,-2.41
2023-02-07T05:38:31.092Z,-2.49
2023-02-07T05:40:59.869Z,-2.44
2023-02-07T05:43:27.887Z,-2.44
2023-02-07T05:45:55.957Z,-2.51
2023-02-07T05:48:24.056Z,-2.43
2023-02-07T05:50:53.312Z,-2.30
2023-02-07T05:53:21.463Z,-2.24
2023-02-07T05:55:52.529Z,-2.20
2023-02-07T05:58:20.450Z,-2.16
2023-02-07T06:00:48.991Z,-2.02
2023-02-07T06:03:17.239Z,-1.98
2023-02-07T06:05:45.252Z,-1.87
2023-02-07T06:08:13.408Z,-1.87
2023-02-07T06:10:41.430Z,-1.76
2023-02-07T06:13:11.594Z,-1.70
2023-02-07T06:15:39.898Z,-1.70
2023-02-07T06:18:08.185Z,-1.61
2023-02-07T06:20:36.253Z,-1.55
2023-02-07T06:23:04.320Z,-1.49
2023-02-07T06:25:32.396Z,-1.42
2023-02-07T06:28:00.937Z,-1.41
2023-02-07T06:30:29.146Z,-1.42
2023-02-07T06:32:57.201Z,-1.40
2023-02-07T06:35:26.411Z,-1.34
2023-02-07T06:37:55.254Z,-1.36
2023-02-07T06:40:23.458Z,-1.32
2023-02-07T06:42:51.499Z,-1.31
2023-02-07T06:45:19.616Z,-1.39
2023-02-07T06:47:47.565Z,-1.33
2023-02-07T06:50:15.851Z,-1.32
2023-02-07T06:52:44.632Z,-1.27
2023-02-07T06:55:12.589Z,-1.27
2023-02-07T06:57:40.606Z,-1.22
2023-02-07T07:00:12.275Z,-1.35
2023-02-07T07:02:40.248Z,-1.22
2023-02-07T07:05:09.312Z,-1.12
2023-02-07T07:07:37.307Z,-1.08
2023-02-07T07:10:06.801Z,-1.04
2023-02-07T07:12:34.849Z,-1.10
2023-02-07T07:15:03.147Z,-1.09
2023-02-07T07:17:31.097Z,-1.08
2023-02-07T07:19:59.810Z,-1.11
2023-02-07T07:22:27.756Z,-1.07
2023-02-07T07:24:55.996Z,-1.02
2023-02-07T07:27:23.921Z,-1.01
2023-02-07T07:29:52.173Z,-0.95
2023-02-07T07:35:08.428Z,-1.11
2023-02-07T07:37:36.611Z,-0.93
2023-02-07T07:40:05.531Z,-0.87
2023-02-07T07:42:35.326Z,-0.89
2023-02-07T07:45:11.008Z,-0.86
2023-02-07T07:47:39.964Z,-0.78
2023-02-07T07:50:08.437Z,-0.76
2023-02-07T07:52:36.513Z,-0.71
2023-02-07T07:55:04.954Z,-0.66
2023-02-07T07:57:32.975Z,-0.57
2023-02-07T08:00:01.028Z,-0.51
2023-02-07T08:02:29.331Z,-0.44
2023-02-07T08:04:57.315Z,-0.47
2023-02-07T08:07:25.330Z,-0.54
2023-02-07T08:09:53.270Z,-0.53
2023-02-07T08:12:21.447Z,-0.51
2023-02-07T08:14:49.516Z,-0.30
2023-02-07T08:17:17.702Z,-0.29
2023-02-07T08:19:45.630Z,-0.25
2023-02-07T08:22:14.625Z,-0.10
2023-02-07T08:24:42.735Z,-0.08
2023-02-07T08:27:10.833Z,-0.06
2023-02-07T08:29:39.100Z,-0.12
2023-02-07T08:32:07.184Z,-0.12
2023-02-07T08:34:37.748Z,0.00
2023-02-07T08:37:08.502Z,0.05
2023-02-07T08:39:36.666Z,0.05
2023-02-07T08:42:08.050Z,0.06
2023-02-07T08:44:37.273Z,0.11
2023-02-07T08:47:05.423Z,0.17
2023-02-07T08:49:33.579Z,0.20
2023-02-07T08:52:01.700Z,0.28
2023-02-07T08:54:29.806Z,0.24
2023-02-07T08:56:57.789Z,0.27
2023-02-07T08:59:25.942Z,0.35
2023-02-07T09:01:55.065Z,0.43
2023-02-07T09:04:23.164Z,0.49
2023-02-07T09:06:51.136Z,0.56
2023-02-07T09:09:19.396Z,0.51
2023-02-07T09:11:47.516Z,0.26
2023-02-07T09:14:15.557Z,-0.08
2023-02-07T09:16:43.600Z,-0.07
2023-02-07T09:19:11.754Z,-0.04
2023-02-07T09:21:39.803Z,0.02
2023-02-07T09:24:07.921Z,-0.05
2023-02-07T09:26:36.337Z,0.15
2023-02-07T09:29:06.144Z,0.37
2023-02-07T09:31:34.931Z,0.20
2023-02-07T09:34:04.864Z,0.15
2023-02-07T09:36:33.168Z,-0.08
2023-02-07T09:39:01.838Z,-0.21
2023-02-07T09:42:07.448Z,-0.12
2023-02-07T09:45:12.363Z,-0.12
2023-02-07T09:47:44.102Z,-0.03
2023-02-07T09:50:23.078Z,0.06
2023-02-07T09:53:05.616Z,-0.02
2023-02-07T09:55:53.004Z,0.13
2023-02-07T09:58:57.671Z,0.43
2023-02-07T10:01:33.515Z,0.41
2023-02-07T10:04:04.521Z,0.30
2023-02-07T10:06:34.912Z,0.53
2023-02-07T10:09:03.358Z,0.72
2023-02-07T10:11:58.442Z,0.64
2023-02-07T10:15:06.723Z,0.29
2023-02-07T10:18:12.244Z,0.41
2023-02-07T10:21:01.675Z,0.51
2023-02-07T10:23:44.933Z,0.39
2023-02-07T10:26:45.232Z,0.52
2023-02-07T10:29:38.304Z,0.80
2023-02-07T10:32:38.512Z,0.85
2023-02-07T10:35:32.088Z,0.65
2023-02-07T10:38:04.437Z,0.92
2023-02-07T10:40:52.713Z,1.07
2023-02-07T10:43:32.601Z,0.95
2023-02-07T10:46:10.298Z,0.71
2023-02-07T10:48:38.924Z,0.64
2023-02-07T10:51:35.717Z,0.95
2023-02-07T10:54:16.362Z,1.11
2023-02-07T10:56:50.432Z,0.95
2023-02-07T10:59:47.522Z,0.90
2023-02-07T11:02:31.815Z,1.23
2023-02-07T11:05:23.636Z,1.39
2023-02-07T11:07:59.898Z,1.63
2023-02-07T11:10:38.799Z,1.45
2023-02-07T11:13:18.313Z,1.56
2023-02-07T11:16:07.782Z,1.65
2023-02-07T11:18:46.761Z,1.62
2023-02-07T11:21:33.653Z,1.69
2023-02-07T11:24:29.272Z,1.75
2023-02-07T11:27:23.772Z,1.41
2023-02-07T11:29:56.550Z,1.57
2023-02-07T11:32:28.709Z,1.62
2023-02-07T11:35:18.999Z,1.55
2023-02-07T11:37:59.988Z,1.61
2023-02-07T11:40:44.756Z,1.58
2023-02-07T11:43:17.269Z,1.62
2023-02-07T11:45:57.628Z,1.49
2023-02-07T11:48:32.730Z,1.45
2023-02-07T11:51:07.848Z,1.62
2023-02-07T11:54:10.339Z,1.66
2023-02-07T11:56:45.943Z,1.46
2023-02-07T11:59:26.640Z,1.66
2023-02-07T12:02:09.354Z,1.27
2023-02-07T12:05:32.240Z,1.12
2023-02-07T12:08:10.357Z,1.67
2023-02-07T12:10:44.580Z,1.88
2023-02-07T12:13:22.665Z,2.00
2023-02-07T12:15:58.382Z,1.95
2023-02-07T12:18:53.549Z,1.57
2023-02-07T12:21:53.545Z,1.69
2023-02-07T12:24:59.849Z,1.47
2023-02-07T12:27:39.390Z,1.49
2023-02-07T12:30:39.394Z,1.72
2023-02-07T12:33:18.582Z,1.68
2023-02-07T12:36:23.581Z,1.29
2023-02-07T12:39:03.869Z,1.56
2023-02-07T12:41:50.451Z,1.52
2023-02-07T12:44:35.997Z,1.57
2023-02-07T12:47:26.354Z,1.71
2023-02-07T12:50:21.702Z,1.40
2023-02-07T12:53:12.639Z,1.67
2023-02-07T12:55:59.859Z,1.84
2023-02-07T12:58:44.136Z,1.96
2023-02-07T13:01:19.543Z,1.87
2023-02-07T13:04:24.172Z,1.74
2023-02-07T13:07:28.377Z,1.83
2023-02-07T13:10:41.816Z,1.61
2023-02-07T13:13:31.017Z,1.40
2023-02-07T13:16:11.880Z,1.26
2023-02-07T13:18:50.985Z,1.70
2023-02-07T13:21:40.881Z,2.00
2023-02-07T13:24:15.560Z,2.14
2023-02-07T13:26:54.436Z,1.83
2023-02-07T13:29:23.829Z,1.94
2023-02-07T13:32:03.610Z,1.92
2023-02-07T13:34:49.806Z,1.70
2023-02-07T13:37:19.273Z,1.91
2023-02-07T13:40:01.602Z,1.74
2023-02-07T13:42:54.858Z,1.79
2023-02-07T13:45:45.733Z,1.85
2023-02-07T13:48:49.728Z,1.80
2023-02-07T13:51:43.943Z,1.75
2023-02-07T13:54:42.808Z,1.44
2023-02-07T13:57:54.665Z,1.52
2023-02-07T14:00:27.861Z,1.71
2023-02-07T14:03:06.615Z,1.79
2023-02-07T14:05:42.103Z,1.73
2023-02-07T14:08:16.559Z,1.70
2023-02-07T14:10:57.503Z,1.75
2023-02-07T14:13:36.266Z,1.86
2023-02-07T14:16:12.624Z,1.90
2023-02-07T14:18:53.440Z,1.86
2023-02-07T14:21:22.773Z,1.90
2023-02-07T14:24:09.274Z,1.80
2023-02-07T14:26:40.121Z,1.77
2023-02-07T14:29:20.335Z,1.62
2023-02-07T14:32:30.912Z,1.39
2023-02-07T14:35:25.565Z,1.43
2023-02-07T14:38:02.380Z,1.43
2023-02-07T14:40:42.146Z,1.37
2023-02-07T14:43:12.744Z,1.57
2023-02-07T14:45:51.951Z,1.71
2023-02-07T14:49:43.191Z,1.79
2023-02-07T14:52:23.894Z,1.81
2023-02-07T14:55:01.033Z,1.73
2023-02-07T14:57:37.787Z,1.52
2023-02-07T15:00:15.188Z,1.12
2023-02-07T15:02:51.402Z,1.26
2023-02-07T15:05:27.924Z,1.38
2023-02-07T15:08:23.706Z,1.25
2023-02-07T15:10:57.777Z,1.41
2023-02-07T15:13:48.675Z,1.54
2023-02-07T15:16:28.468Z,1.40
2023-02-07T15:19:05.595Z,1.12
2023-02-07T15:21:42.122Z,1.16
2023-02-07T15:24:50.526Z,1.20
2023-02-07T15:27:26.774Z,1.20
2023-02-07T15:29:57.803Z,1.29
2023-02-07T15:32:34.250Z,1.38
2023-02-07T15:35:22.202Z,1.47
2023-02-07T15:37:50.745Z,1.46
2023-02-07T15:40:24.928Z,1.40
2023-02-07T15:42:58.701Z,1.43
2023-02-07T15:45:33.027Z,1.45
2023-02-07T15:48:07.713Z,1.49
2023-02-07T15:50:38.028Z,1.25
2023-02-07T15:53:08.685Z,1.11
2023-02-07T15:55:46.742Z,0.99
2023-02-07T15:58:34.738Z,1.02
2023-02-07T16:01:15.937Z,1.11
2023-02-07T16:03:47.363Z,1.20
2023-02-07T16:06:30.880Z,1.26
2023-02-07T16:09:02.106Z,1.25
2023-02-07T16:11:30.550Z,1.26
2023-02-07T16:14:25.610Z,1.31
2023-02-07T16:16:56.911Z,1.29
2023-02-07T16:19:31.089Z,1.21
2023-02-07T16:22:10.900Z,1.08
2023-02-07T16:24:43.493Z,1.03
2023-02-07T16:27:19.446Z,0.95
2023-02-07T16:29:48.149Z,1.10
2023-02-07T16:32:17.013Z,1.18
2023-02-07T16:34:59.024Z,1.16
2023-02-07T16:37:28.818Z,0.96
2023-02-07T16:39:56.984Z,0.97
2023-02-07T16:42:24.982Z,0.99
2023-02-07T16:44:53.748Z,0.93
2023-02-07T16:47:23.390Z,0.97
2023-02-07T16:49:51.526Z,1.05
2023-02-07T16:52:19.689Z,1.16
2023-02-07T16:54:47.758Z,1.22
2023-02-07T16:57:16.860Z,1.26
2023-02-07T16:59:44.973Z,1.29
2023-02-07T17:02:16.554Z,1.22
2023-02-07T17:04:44.883Z,0.87
2023-02-07T17:07:12.956Z,1.07
2023-02-07T17:09:42.872Z,1.14
2023-02-07T17:12:14.384Z,1.16
2023-02-07T17:14:45.074Z,1.28
2023-02-07T17:17:16.059Z,1.35
2023-02-07T17:19:47.424Z,1.31
2023-02-07T17:22:15.390Z,1.28
2023-02-07T17:24:43.457Z,1.33
2023-02-07T17:27:11.517Z,1.35
2023-02-07T17:29:39.695Z,1.29
2023-02-07T17:32:09.602Z,1.24
2023-02-07T17:34:37.582Z,1.03
2023-02-07T17:37:05.739Z,0.73
2023-02-07T17:39:33.728Z,0.83
2023-02-07T17:42:01.657Z,0.97
2023-02-07T17:44:29.918Z,1.06
2023-02-07T17:46:58.144Z,1.13
2023-02-07T17:49:26.056Z,1.18
2023-02-07T17:51:53.998Z,1.20
2023-02-07T17:54:22.142Z,1.16
2023-02-07T17:56:50.090Z,1.14
2023-02-07T17:59:27.388Z,1.14
2023-02-07T18:01:55.396Z,1.08
2023-02-07T18:04:23.413Z,1.11
2023-02-07T18:06:51.528Z,1.09
2023-02-07T18:09:20.398Z,1.09
2023-02-07T18:11:49.476Z,1.09
2023-02-07T18:14:18.008Z,1.11
2023-02-07T18:16:46.079Z,1.12
2023-02-07T18:19:17.323Z,1.10
2023-02-07T18:21:45.403Z,1.08
2023-02-07T18:24:13.845Z,1.07
2023-02-07T18:26:44.543Z,1.15
2023-02-07T18:29:12.537Z,1.17
2023-02-07T18:31:40.591Z,1.16
2023-02-07T18:34:08.600Z,1.16
2023-02-07T18:36:40.287Z,1.17
2023-02-07T18:39:10.466Z,1.18
2023-02-07T18:41:38.669Z,1.18
2023-02-07T18:44:07.666Z,1.12
2023-02-07T18:46:35.774Z,1.03
2023-02-07T18:49:03.906Z,1.10
2023-02-07T18:51:31.960Z,1.14
2023-02-07T18:53:59.949Z,1.13
2023-02-07T18:56:28.027Z,1.17
2023-02-07T18:58:59.189Z,1.17
2023-02-07T19:01:30.272Z,1.16
2023-02-07T19:04:01.520Z,1.22
2023-02-07T19:06:34.051Z,1.26
2023-02-07T19:09:02.266Z,1.33
2023-02-07T19:11:30.256Z,1.37
2023-02-07T19:13:58.872Z,1.38
2023-02-07T19:16:27.860Z,1.32
2023-02-07T19:18:58.514Z,1.17
2023-02-07T19:21:29.742Z,1.10
2023-02-07T19:23:59.045Z,1.21
2023-02-07T19:26:32.555Z,1.29
2023-02-07T19:29:05.131Z,1.26
2023-02-07T19:31:37.602Z,1.25
2023-02-07T19:34:05.930Z,1.16
2023-02-07T19:36:35.677Z,1.09
2023-02-07T19:39:05.113Z,1.16
2023-02-07T19:41:34.505Z,1.25
2023-02-07T19:44:02.685Z,1.28
2023-02-07T19:46:30.894Z,1.22
2023-02-07T19:48:59.162Z,1.25
2023-02-07T19:51:29.410Z,1.21
2023-02-07T19:53:58.638Z,1.04
2023-02-07T19:56:33.185Z,0.86
2023-02-07T19:59:04.875Z,0.77
2023-02-07T20:01:35.456Z,0.89
2023-02-07T20:04:04.394Z,1.05
2023-02-07T20:06:34.659Z,1.16
2023-02-07T20:09:06.214Z,1.23
2023-02-07T20:11:35.029Z,1.27
2023-02-07T20:14:04.000Z,1.24
2023-02-07T20:16:36.773Z,1.21
2023-02-07T20:19:07.082Z,0.96
2023-02-07T20:21:36.990Z,0.89
2023-02-07T20:24:06.117Z,1.11
2023-02-07T20:26:40.536Z,1.20
2023-02-07T20:29:13.178Z,1.26
2023-02-07T20:31:43.154Z,1.33
2023-02-07T20:34:12.229Z,1.33
2023-02-07T20:36:42.341Z,1.22
2023-02-07T20:39:22.465Z,1.17
2023-02-07T20:41:50.980Z,1.19
2023-02-07T20:44:26.594Z,1.05
2023-02-07T20:46:58.086Z,1.19
2023-02-07T20:49:30.277Z,1.20
2023-02-07T20:52:00.300Z,1.14
2023-02-07T20:54:30.824Z,1.10
2023-02-07T20:56:59.057Z,1.07
2023-02-07T20:59:32.661Z,1.20
2023-02-07T21:02:01.948Z,1.23
2023-02-07T21:04:30.297Z,1.23
2023-02-07T21:06:58.510Z,1.18
2023-02-07T21:09:26.751Z,1.00
2023-02-07T21:11:54.976Z,1.01
2023-02-07T21:14:30.154Z,1.07
2023-02-07T21:17:05.871Z,1.04
2023-02-07T21:19:38.749Z,1.18
2023-02-07T21:22:07.662Z,1.13
2023-02-07T21:24:35.912Z,1.07
2023-02-07T21:27:05.143Z,1.11
2023-02-07T21:29:35.239Z,1.14
2023-02-07T21:32:03.338Z,1.13
2023-02-07T21:34:31.443Z,0.92
2023-02-07T21:36:59.392Z,0.70
2023-02-07T21:39:27.346Z,0.84
2023-02-07T21:41:55.614Z,0.97
2023-02-07T21:44:23.536Z,0.85
2023-02-07T21:46:52.192Z,0.78
2023-02-07T21:49:20.908Z,0.76
2023-02-07T21:51:51.149Z,0.73
2023-02-07T21:54:19.542Z,0.81
2023-02-07T21:56:49.684Z,0.76
2023-02-07T21:59:20.352Z,0.74
2023-02-07T22:01:48.559Z,0.96
2023-02-07T22:04:17.734Z,1.09
2023-02-07T22:06:47.972Z,0.77
2023-02-07T22:09:18.801Z,0.72
2023-02-07T22:11:46.937Z,0.96
2023-02-07T22:14:16.227Z,0.91
2023-02-07T22:16:44.357Z,0.82
2023-02-07T22:19:14.403Z,0.83
2023-02-07T22:21:44.204Z,0.80
2023-02-07T22:24:15.004Z,0.70
2023-02-07T22:26:44.119Z,0.81
2023-02-07T22:29:12.295Z,0.63
2023-02-07T22:31:41.951Z,0.61
2023-02-07T22:34:12.877Z,0.81
2023-02-07T22:36:43.655Z,0.92
2023-02-07T22:39:14.667Z,0.83
2023-02-07T22:41:43.094Z,0.69
2023-02-07T22:44:11.380Z,0.65
2023-02-07T22:46:39.555Z,0.71
2023-02-07T22:49:07.543Z,0.78
2023-02-07T22:51:37.638Z,0.79
2023-02-07T22:54:16.928Z,0.83
2023-02-07T22:56:46.202Z,0.92
2023-02-07T22:59:14.486Z,1.00
2023-02-07T23:01:44.326Z,1.06
2023-02-07T23:04:17.581Z,0.85
2023-02-07T23:06:47.023Z,0.68
2023-02-07T23:09:16.320Z,0.68
2023-02-07T23:11:45.372Z,0.44
2023-02-07T23:14:13.638Z,0.40
2023-02-07T23:16:42.167Z,0.60
2023-02-07T23:19:16.470Z,0.59
2023-02-07T23:21:44.533Z,0.66
2023-02-07T23:24:12.600Z,0.61
2023-02-07T23:26:40.739Z,0.33
2023-02-07T23:29:08.966Z,0.24
2023-02-07T23:31:37.217Z,0.39
2023-02-07T23:34:05.314Z,0.36
2023-02-07T23:36:33.283Z,0.40
2023-02-07T23:39:01.395Z,0.20
2023-02-07T23:41:30.034Z,0.38
2023-02-07T23:44:00.200Z,0.42
2023-02-07T23:46:29.772Z,0.62
2023-02-07T23:48:58.689Z,0.75
2023-02-07T23:51:27.170Z,0.45
2023-02-07T23:53:55.240Z,0.40
2023-02-07T23:56:24.083Z,0.39
2023-02-07T23:58:53.281Z,0.34
